Time;durP1;ratioP1;P1;durP2;ratioP2;P2;SDS_P1;SDS_P2;PMS_P1;PMS_P2;Temp;Humidity;BMP_temperature;BMP_pressure;BME280_temperature;BME280_humidity;BME280_pressure;Samples;Min_cycle;Max_cycle;Signal;HPM_P1;HPM_P2
2022/06/04 00:01:25;;;;;;;2.85;1.92;;;;;;;15.28;96.67;101963.25;5099158;28;20040;-67
2022/06/04 00:03:50;;;;;;;4.88;2.30;;;;;;;15.34;95.66;101965.97;5092476;28;20030;-67
2022/06/04 00:06:16;;;;;;;2.70;1.90;;;;;;;15.24;96.35;101969.38;5103677;28;20046;-67
2022/06/04 00:08:41;;;;;;;8.10;1.90;;;;;;;15.19;96.96;101982.53;5100801;28;20028;-68
2022/06/04 00:16:34;;;;;;;6.60;2.50;;;;;;;15.14;97.33;101989.56;5102689;28;19978;-67
2022/06/04 00:19:00;;;;;;;6.57;2.70;;;;;;;15.04;98.17;101983.19;5105366;28;20063;-68
2022/06/04 00:21:26;;;;;;;5.20;2.50;;;;;;;15.03;97.79;101986.75;5096706;28;20016;-67
2022/06/04 00:23:51;;;;;;;5.55;2.30;;;;;;;15.02;98.35;101984.94;5103661;28;20423;-68
2022/06/04 00:26:18;;;;;;;4.97;2.80;;;;;;;14.91;99.42;101986.53;5091098;28;20035;-67
2022/06/04 00:28:46;;;;;;;9.95;2.85;;;;;;;14.89;100.00;101994.44;5096818;28;20084;-68
2022/06/04 00:31:11;;;;;;;3.45;2.70;;;;;;;14.80;99.76;101997.81;5107205;28;20027;-67
2022/06/04 00:33:36;;;;;;;2.78;2.55;;;;;;;14.72;100.00;101991.50;5106153;27;20051;-67
2022/06/04 00:36:02;;;;;;;4.63;2.95;;;;;;;14.84;100.00;101996.13;5099933;28;20070;-67
2022/06/04 00:38:30;;;;;;;5.72;3.10;;;;;;;14.77;100.00;101991.56;5093304;28;20024;-68
2022/06/04 00:41:20;;;;;;;5.25;3.30;;;;;;;14.76;100.00;101992.44;5093419;28;20452;-68
2022/06/04 00:44:17;;;;;;;5.47;2.78;;;;;;;14.77;100.00;101997.78;5095886;28;20028;-68
2022/06/04 00:46:42;;;;;;;3.80;2.67;;;;;;;14.58;100.00;101993.88;5097091;28;20478;-67
2022/06/04 00:49:09;;;;;;;9.25;2.83;;;;;;;14.70;100.00;101995.88;5094553;28;20040;-67
2022/06/04 00:51:36;;;;;;;10.82;3.63;;;;;;;14.59;100.00;101995.63;5094547;28;20532;-68
2022/06/04 00:54:03;;;;;;;4.13;2.80;;;;;;;14.61;100.00;101993.91;5101488;28;20035;-66
2022/06/04 00:56:56;;;;;;;4.55;2.95;;;;;;;14.53;100.00;101994.63;5092575;28;20024;-68
2022/06/04 00:59:30;;;;;;;5.85;3.10;;;;;;;14.50;100.00;101999.03;5104834;28;20043;-68
2022/06/04 01:02:14;;;;;;;3.70;2.80;;;;;;;14.53;100.00;101991.97;5100319;28;20070;-67
2022/06/04 01:04:48;;;;;;;;;;;;;;;14.47;100.00;101991.03;5095564;28;20391;-67
2022/06/04 01:07:35;;;;;;;4.32;2.70;;;;;;;14.49;100.00;101996.34;5093769;28;19912;-68
2022/06/04 01:10:21;;;;;;;6.72;2.78;;;;;;;14.44;100.00;102004.19;5093501;28;20032;-67
2022/06/04 01:13:02;;;;;;;3.78;2.90;;;;;;;14.38;100.00;101996.13;5103408;28;20027;-66
2022/06/04 01:15:49;;;;;;;6.32;2.47;;;;;;;14.33;100.00;101992.50;5107499;28;20085;-66
2022/06/04 01:18:14;;;;;;;6.13;2.95;;;;;;;14.29;100.00;101991.53;5101166;28;20032;-67
2022/06/04 01:20:57;;;;;;;6.15;3.25;;;;;;;14.28;100.00;102004.75;5100655;28;20490;-68
2022/06/04 01:23:42;;;;;;;6.35;3.55;;;;;;;14.20;100.00;102006.34;5093827;28;20032;-67
2022/06/04 01:26:16;;;;;;;6.40;3.40;;;;;;;14.32;100.00;102014.53;5100379;28;20081;-67
2022/06/04 01:28:48;;;;;;;6.75;3.70;;;;;;;14.24;100.00;102018.78;5095635;28;20023;-67
2022/06/04 01:31:20;;;;;;;6.93;3.28;;;;;;;14.33;100.00;102009.28;5094613;28;20020;-67
2022/06/04 01:33:52;;;;;;;8.93;3.17;;;;;;;14.28;100.00;102010.03;5094268;28;20032;-66
2022/06/04 01:36:24;;;;;;;9.32;3.70;;;;;;;14.32;100.00;102011.91;5094887;28;20090;-67
2022/06/04 01:39:15;;;;;;;8.65;4.05;;;;;;;14.22;100.00;102023.19;5097792;28;20056;-68
2022/06/04 01:41:48;;;;;;;9.05;4.70;;;;;;;14.16;100.00;102027.47;5091945;28;20051;-67
2022/06/04 01:44:19;;;;;;;7.00;3.97;;;;;;;14.22;100.00;102036.41;5098441;28;20432;-67
2022/06/04 01:46:51;;;;;;;6.60;3.42;;;;;;;14.29;100.00;102043.63;5099311;28;20020;-67
2022/06/04 01:49:23;;;;;;;7.07;3.63;;;;;;;14.19;100.00;102044.28;5094963;28;20808;-66
2022/06/04 01:51:53;;;;;;;4.47;3.70;;;;;;;14.21;100.00;102051.38;5096379;28;20041;-68
2022/06/04 01:54:21;;;;;;;9.38;4.03;;;;;;;14.23;100.00;102059.34;5095631;28;20024;-67
2022/06/04 01:56:52;;;;;;;9.43;4.05;;;;;;;14.21;100.00;102054.03;5098076;28;20092;-66
2022/06/04 01:59:38;;;;;;;6.32;3.85;;;;;;;14.18;100.00;102045.16;5097495;28;20019;-67
2022/06/04 02:02:09;;;;;;;7.13;3.60;;;;;;;14.25;100.00;102031.19;5088643;28;20151;-69
2022/06/04 02:04:43;;;;;;;7.93;3.75;;;;;;;14.22;100.00;102036.41;5098175;28;20383;-67
2022/06/04 02:07:30;;;;;;;6.80;3.95;;;;;;;14.25;100.00;102040.00;5097101;28;20020;-67
2022/06/04 02:10:07;;;;;;;7.18;4.25;;;;;;;14.10;100.00;102037.94;5096786;28;20065;-68
2022/06/04 02:12:33;;;;;;;8.45;4.13;;;;;;;14.19;100.00;102041.63;5106321;28;20069;-68
2022/06/04 02:15:03;;;;;;;8.65;3.50;;;;;;;14.10;100.00;102035.28;5092867;28;20028;-67
2022/06/04 02:17:30;;;;;;;8.48;3.90;;;;;;;14.02;100.00;102042.16;5098647;28;20023;-68
2022/06/04 02:19:55;;;;;;;11.90;4.10;;;;;;;13.97;100.00;102038.53;5094522;28;20036;-68
2022/06/04 02:22:21;;;;;;;10.10;4.55;;;;;;;13.98;100.00;102042.97;5096942;28;20168;-67
2022/06/04 02:24:46;;;;;;;12.38;4.10;;;;;;;14.06;100.00;102043.13;5106151;28;20114;-66
2022/06/04 02:27:12;;;;;;;7.10;4.15;;;;;;;13.92;100.00;102037.56;5106901;28;20484;-67
2022/06/04 02:29:38;;;;;;;8.43;4.82;;;;;;;13.94;100.00;102038.47;5095085;28;20456;-66
2022/06/04 02:32:13;;;;;;;10.95;4.65;;;;;;;13.95;100.00;102037.59;5101479;28;20023;-67
2022/06/04 02:35:00;;;;;;;10.60;5.20;;;;;;;13.94;100.00;102041.09;5095535;28;20387;-67
2022/06/04 02:37:29;;;;;;;14.85;4.35;;;;;;;13.94;100.00;102046.41;5093586;28;20035;-67
2022/06/04 02:40:18;;;;;;;10.52;4.90;;;;;;;13.89;100.00;102053.34;5108144;28;20077;-67
2022/06/04 02:43:04;;;;;;;9.10;4.85;;;;;;;13.89;100.00;102048.03;5082467;28;20032;-67
2022/06/04 02:45:36;;;;;;;8.73;5.05;;;;;;;13.82;100.00;102039.97;5093463;28;20349;-67
2022/06/04 02:48:10;;;;;;;9.95;5.60;;;;;;;13.86;100.00;102040.03;5093619;28;20417;-67
2022/06/04 02:50:42;;;;;;;10.25;5.43;;;;;;;13.87;100.00;102039.19;5092852;28;20488;-66
2022/06/04 02:53:10;;;;;;;12.38;4.93;;;;;;;13.78;100.00;102035.47;5081419;28;20103;-66
2022/06/04 02:55:41;;;;;;;9.57;5.40;;;;;;;13.69;100.00;102024.69;5085617;28;20051;-66
2022/06/04 02:58:12;;;;;;;9.95;5.25;;;;;;;13.68;100.00;102016.72;5106401;28;20386;-67
2022/06/04 03:00:38;;;;;;;8.85;5.07;;;;;;;13.71;100.00;102017.66;5091127;28;20468;-67
2022/06/04 03:03:04;;;;;;;10.57;5.45;;;;;;;13.49;100.00;102016.28;5085040;28;20024;-68
2022/06/04 03:05:29;;;;;;;8.65;4.82;;;;;;;13.60;100.00;102013.91;5090442;28;20036;-67
2022/06/04 03:08:00;;;;;;;12.40;5.10;;;;;;;13.56;100.00;102019.97;5102176;28;20529;-67
2022/06/04 03:10:34;;;;;;;11.60;5.30;;;;;;;13.45;100.00;102012.66;5099117;28;20024;-67
2022/06/04 03:12:59;;;;;;;8.27;5.00;;;;;;;13.44;100.00;102007.34;5102888;28;20128;-67
2022/06/04 03:15:26;;;;;;;10.48;5.13;;;;;;;13.44;100.00;102008.25;5098818;28;20507;-67
2022/06/04 03:17:52;;;;;;;9.55;5.00;;;;;;;13.36;100.00;102008.91;5105958;27;20039;-67
2022/06/04 03:20:22;;;;;;;7.43;5.25;;;;;;;13.25;100.00;102000.69;5111247;27;20054;-67
2022/06/04 03:22:47;;;;;;;9.25;5.68;;;;;;;13.29;100.00;102002.56;5115208;27;20032;-68
2022/06/04 03:25:13;;;;;;;10.40;5.13;;;;;;;13.36;100.00;102001.91;5107481;28;20035;-68
2022/06/04 03:27:38;;;;;;;13.70;5.57;;;;;;;13.37;100.00;102006.31;5099115;28;20063;-69
2022/06/04 03:30:06;;;;;;;7.07;4.38;;;;;;;13.39;100.00;102003.69;5104547;28;20483;-66
2022/06/04 03:32:31;;;;;;;10.45;5.38;;;;;;;13.35;100.00;101997.44;5104756;27;20031;-67
2022/06/04 03:34:57;;;;;;;12.02;5.22;;;;;;;13.32;100.00;101997.34;5099265;28;20157;-68
2022/06/04 03:37:22;;;;;;;9.68;5.47;;;;;;;13.24;100.00;101994.53;5099292;28;20089;-67
2022/06/04 03:39:48;;;;;;;9.02;5.45;;;;;;;13.29;100.00;101999.91;5099236;28;20035;-67
2022/06/04 03:42:13;;;;;;;13.70;6.15;;;;;;;13.25;100.00;101998.06;5103759;28;20454;-67
2022/06/04 03:44:40;;;;;;;10.57;5.78;;;;;;;13.21;100.00;102001.47;5098038;28;20035;-68
2022/06/04 03:47:06;;;;;;;13.35;6.03;;;;;;;13.22;100.00;102006.81;5118164;27;20159;-67
2022/06/04 03:49:32;;;;;;;11.40;5.82;;;;;;;13.27;100.00;102014.88;5098179;28;20048;-67
2022/06/04 03:51:57;;;;;;;12.13;5.97;;;;;;;13.27;100.00;102026.31;5098883;28;20028;-67
2022/06/04 03:54:52;;;;;;;14.10;5.25;;;;;;;13.25;100.00;102021.84;5099229;28;20024;-67
2022/06/04 03:59:53;;;;;;;;;;;;;;;13.30;100.00;102014.94;5096560;28;20055;-66
2022/06/04 04:02:18;;;;;;;11.35;4.78;;;;;;;13.36;100.00;102012.47;5098953;28;20360;-68
2022/06/04 04:04:44;;;;;;;10.30;5.13;;;;;;;13.31;100.00;102011.44;5109845;28;20039;-67
2022/06/04 04:07:10;;;;;;;9.05;4.70;;;;;;;13.37;100.00;102014.25;5096907;28;20472;-68
2022/06/04 04:09:35;;;;;;;8.52;5.30;;;;;;;13.35;100.00;102013.28;5106946;27;20024;-68
2022/06/04 04:12:00;;;;;;;10.55;5.40;;;;;;;13.38;100.00;102018.69;5098800;28;20032;-67
2022/06/04 04:14:26;;;;;;;9.48;5.32;;;;;;;13.36;100.00;102009.84;5098950;28;20034;-68
2022/06/04 04:16:51;;;;;;;13.82;5.30;;;;;;;13.36;100.00;102015.13;5100958;27;20467;-67
2022/06/04 04:19:16;;;;;;;11.30;5.18;;;;;;;13.44;100.00;102013.56;5101459;28;20023;-67
2022/06/04 04:21:41;;;;;;;13.07;5.38;;;;;;;13.50;100.00;101999.56;5096813;28;20035;-68
2022/06/04 04:24:07;;;;;;;10.88;5.32;;;;;;;13.54;100.00;102005.81;5095872;28;20028;-68
2022/06/04 04:26:32;;;;;;;12.57;6.05;;;;;;;13.62;100.00;102012.19;5094412;28;20032;-68
2022/06/04 04:28:58;;;;;;;8.80;5.28;;;;;;;13.71;100.00;102020.31;5099366;28;20020;-67
2022/06/04 04:31:23;;;;;;;8.10;5.63;;;;;;;13.73;100.00;102021.25;5095277;28;20417;-67
2022/06/04 04:33:48;;;;;;;7.00;5.35;;;;;;;13.74;100.00;102025.69;5095220;28;20531;-67
2022/06/04 04:36:14;;;;;;;11.70;5.68;;;;;;;13.74;100.00;102028.34;5098159;28;20053;-67
2022/06/04 04:38:39;;;;;;;13.10;5.80;;;;;;;13.76;100.00;102037.19;5097474;28;20383;-68
2022/06/04 04:41:12;;;;;;;8.75;5.40;;;;;;;13.78;100.00;102029.28;5094555;28;20038;-66
2022/06/04 04:43:38;;;;;;;8.50;5.18;;;;;;;13.78;100.00;102019.63;5106076;28;20138;-68
2022/06/04 04:46:07;;;;;;;11.02;5.53;;;;;;;13.74;100.00;102015.13;5109049;28;20035;-67
2022/06/04 04:48:32;;;;;;;14.82;6.53;;;;;;;13.60;100.00;102016.53;5100625;28;20039;-67
2022/06/04 04:50:58;;;;;;;13.27;5.97;;;;;;;13.69;100.00;102018.50;5107343;28;20028;-67
2022/06/04 04:53:23;;;;;;;9.75;5.40;;;;;;;13.77;100.00;102028.41;5100679;28;20101;-67
2022/06/04 04:55:49;;;;;;;9.93;5.82;;;;;;;13.76;100.00;102031.91;5095076;28;20024;-68
2022/06/04 04:58:15;;;;;;;16.02;6.68;;;;;;;13.70;100.00;102031.78;5094275;28;20028;-67
2022/06/04 05:00:42;;;;;;;9.93;5.97;;;;;;;13.83;100.00;102027.63;5094300;28;20035;-68
2022/06/04 05:03:07;;;;;;;11.00;5.90;;;;;;;13.90;100.00;102033.97;5098451;27;20031;-68
2022/06/04 05:05:32;;;;;;;10.63;5.75;;;;;;;13.92;100.00;102033.13;5094838;28;20020;-66
2022/06/04 05:07:58;;;;;;;11.88;5.38;;;;;;;13.93;100.00;102029.63;5097462;28;20053;-67
2022/06/04 05:10:24;;;;;;;11.00;5.47;;;;;;;13.97;100.00;102035.88;5105365;28;20028;-67
2022/06/04 05:12:52;;;;;;;12.30;6.05;;;;;;;13.97;100.00;102033.22;5099582;28;20119;-67
2022/06/04 05:15:17;;;;;;;9.63;5.30;;;;;;;14.02;100.00;102034.22;5093692;28;20020;-67
2022/06/04 05:17:42;;;;;;;14.23;5.15;;;;;;;13.97;100.00;102041.16;5104900;28;20033;-68
2022/06/04 05:20:09;;;;;;;10.18;5.57;;;;;;;14.02;100.00;102044.81;5100946;28;20023;-68
2022/06/04 05:22:35;;;;;;;8.93;5.20;;;;;;;13.97;100.00;102036.78;5098122;28;20028;-68
2022/06/04 05:25:01;;;;;;;9.52;4.95;;;;;;;14.00;100.00;102035.97;5101218;28;20360;-67
2022/06/04 05:27:27;;;;;;;8.68;5.32;;;;;;;14.04;100.00;102026.31;5097570;28;20043;-68
2022/06/04 05:29:52;;;;;;;8.43;4.68;;;;;;;14.12;100.00;102030.00;5091874;28;20051;-69
2022/06/04 05:32:17;;;;;;;8.07;4.63;;;;;;;14.13;100.00;102040.66;5105435;28;20024;-67
2022/06/04 05:34:43;;;;;;;11.65;4.63;;;;;;;14.26;100.00;102032.97;5094717;28;20044;-68
2022/06/04 05:37:08;;;;;;;11.60;4.80;;;;;;;14.27;100.00;102029.44;5094030;28;20024;-68
2022/06/04 05:39:35;;;;;;;8.93;4.85;;;;;;;14.35;100.00;102030.47;5093390;28;20440;-68
2022/06/04 05:42:02;;;;;;;9.80;4.50;;;;;;;14.33;100.00;102022.50;5096028;28;20020;-68
2022/06/04 05:44:28;;;;;;;8.70;4.68;;;;;;;14.41;100.00;102012.06;5098013;28;20095;-68
2022/06/04 05:46:54;;;;;;;11.13;4.82;;;;;;;14.52;100.00;102019.34;5094320;28;20024;-68
2022/06/04 05:49:20;;;;;;;16.67;5.38;;;;;;;14.60;100.00;102015.09;5092331;28;20548;-66
2022/06/04 05:51:46;;;;;;;9.30;4.70;;;;;;;14.60;100.00;102015.09;5089002;28;20027;-67
2022/06/04 05:54:12;;;;;;;14.77;4.68;;;;;;;14.50;100.00;102021.94;5081864;28;20371;-68
2022/06/04 05:56:41;;;;;;;17.73;4.78;;;;;;;14.69;100.00;102023.25;5097108;28;20031;-67
2022/06/04 05:59:10;;;;;;;10.35;4.63;;;;;;;14.75;100.00;102028.63;5093608;28;20055;-68
2022/06/04 06:01:41;;;;;;;10.02;4.50;;;;;;;14.97;100.00;102039.63;5105753;28;20097;-67
2022/06/04 06:04:08;;;;;;;14.25;3.90;;;;;;;15.00;100.00;102040.59;5095482;28;20020;-68
2022/06/04 06:06:37;;;;;;;10.63;4.13;;;;;;;15.16;100.00;102035.53;5097728;28;20103;-67
2022/06/04 06:09:05;;;;;;;9.10;4.22;;;;;;;15.16;100.00;102032.88;5087929;28;20047;-68
2022/06/04 06:11:31;;;;;;;9.18;4.15;;;;;;;15.08;100.00;102038.03;5107018;28;20079;-68
2022/06/04 06:13:57;;;;;;;15.10;4.60;;;;;;;15.14;100.00;102038.16;5099677;27;20084;-68
2022/06/04 06:16:26;;;;;;;13.75;4.20;;;;;;;15.06;100.00;102045.09;5092573;28;20039;-68
2022/06/04 06:18:52;;;;;;;10.85;4.95;;;;;;;14.96;100.00;102057.31;5103877;28;20031;-68
2022/06/04 06:21:22;;;;;;;13.32;4.85;;;;;;;14.99;100.00;102060.00;5095507;28;20039;-67
2022/06/04 06:23:50;;;;;;;13.70;4.22;;;;;;;14.99;100.00;102062.66;5094408;28;20027;-69
2022/06/04 06:26:18;;;;;;;11.38;4.90;;;;;;;14.84;100.00;102065.91;5095957;28;20418;-68
2022/06/04 06:28:44;;;;;;;9.75;4.57;;;;;;;14.82;100.00;102062.31;5093345;28;20111;-69
2022/06/04 06:31:13;;;;;;;9.95;4.70;;;;;;;14.90;100.00;102069.53;5091220;28;20112;-68
2022/06/04 06:33:38;;;;;;;8.93;4.38;;;;;;;14.90;100.00;102072.19;5102231;28;20551;-67
2022/06/04 06:36:07;;;;;;;10.25;4.75;;;;;;;14.97;100.00;102076.72;5100145;28;20032;-67
2022/06/04 06:38:33;;;;;;;8.82;4.05;;;;;;;15.00;100.00;102079.44;5098319;28;20038;-69
2022/06/04 06:40:59;;;;;;;9.98;4.43;;;;;;;14.93;100.00;102090.78;5099301;28;20127;-70
2022/06/04 06:43:39;;;;;;;12.10;4.75;;;;;;;14.87;100.00;102091.59;5099808;28;20368;-69
2022/06/04 06:46:05;;;;;;;13.25;4.65;;;;;;;15.02;100.00;102101.56;5088231;28;20034;-68
2022/06/04 06:48:31;;;;;;;7.35;4.07;;;;;;;15.07;100.00;102105.22;5088393;28;20067;-68
2022/06/04 06:50:57;;;;;;;10.82;4.32;;;;;;;15.06;100.00;102110.50;5088886;28;20041;-68
2022/06/04 06:53:22;;;;;;;10.05;4.45;;;;;;;15.13;100.00;102115.91;5093084;28;20398;-69
2022/06/04 06:55:47;;;;;;;8.50;4.20;;;;;;;15.15;100.00;102113.28;5090962;28;20043;-68
2022/06/04 06:58:13;;;;;;;8.65;4.18;;;;;;;15.05;100.00;102104.28;5094894;28;20023;-69
2022/06/04 07:00:38;;;;;;;12.68;4.63;;;;;;;15.13;100.00;102102.66;5091820;28;20032;-69
2022/06/04 07:03:04;;;;;;;9.30;4.97;;;;;;;15.13;100.00;102099.13;5089298;28;20027;-68
2022/06/04 07:05:29;;;;;;;8.15;3.83;;;;;;;15.14;100.00;102104.44;5084126;28;20111;-68
2022/06/04 07:07:54;;;;;;;11.73;4.30;;;;;;;15.12;100.00;102103.50;5090995;28;20024;-69
2022/06/04 07:10:20;;;;;;;9.60;4.40;;;;;;;15.04;100.00;102105.13;5086766;28;20044;-69
2022/06/04 07:12:45;;;;;;;8.20;4.40;;;;;;;15.18;100.00;102111.59;5091783;28;20035;-69
2022/06/04 07:15:11;;;;;;;12.25;4.30;;;;;;;15.20;100.00;102106.31;5088915;28;20457;-69
2022/06/04 07:17:37;;;;;;;7.55;4.20;;;;;;;15.16;100.00;102108.00;5085991;28;20032;-68
2022/06/04 07:20:02;;;;;;;11.70;4.88;;;;;;;15.16;100.00;102105.34;5082456;28;20031;-67
2022/06/04 07:22:28;;;;;;;13.02;4.28;;;;;;;15.24;100.00;102105.50;5085618;28;20024;-69
2022/06/04 07:24:55;;;;;;;12.70;4.43;;;;;;;15.32;100.00;102121.56;5086218;28;20406;-70
2022/06/04 07:27:21;;;;;;;10.57;4.28;;;;;;;15.47;100.00;102124.44;5094122;28;20032;-73
2022/06/04 07:29:46;;;;;;;8.10;4.68;;;;;;;15.61;100.00;102118.47;5089747;28;20020;-70
2022/06/04 07:32:11;;;;;;;7.63;4.22;;;;;;;15.85;100.00;102118.91;5087583;28;20072;-70
2022/06/04 07:34:37;;;;;;;13.93;4.80;;;;;;;15.93;100.00;102118.16;5087956;28;20395;-69
2022/06/04 07:37:02;;;;;;;8.57;3.78;;;;;;;15.96;100.00;102118.19;5083456;28;20360;-70
2022/06/04 07:39:28;;;;;;;6.97;3.63;;;;;;;16.05;100.00;102101.47;5089586;28;20027;-72
2022/06/04 07:41:54;;;;;;;5.88;3.80;;;;;;;16.16;100.00;102097.22;5098561;28;20099;-68
2022/06/04 07:44:22;;;;;;;7.38;4.05;;;;;;;16.18;100.00;102101.69;5091328;28;20030;-70
2022/06/04 07:46:49;;;;;;;8.40;4.38;;;;;;;16.23;100.00;102096.44;5089939;28;20043;-70
2022/06/04 07:49:15;;;;;;;9.75;4.25;;;;;;;16.27;100.00;102100.91;5098722;28;20075;-69
2022/06/04 07:51:42;;;;;;;19.23;4.40;;;;;;;16.39;100.00;102092.22;5092725;28;20030;-70
2022/06/04 07:54:08;;;;;;;7.35;3.67;;;;;;;16.74;100.00;102094.41;5098852;28;20052;-69
2022/06/04 07:56:36;;;;;;;6.82;3.72;;;;;;;16.92;100.00;102098.16;5095805;28;20100;-69
2022/06/04 07:59:01;;;;;;;13.20;3.72;;;;;;;17.12;100.00;102090.34;5098347;28;20573;-69
2022/06/04 08:01:28;;;;;;;17.55;5.53;;;;;;;17.00;100.00;102094.69;5093764;28;20111;-69
2022/06/04 08:03:54;;;;;;;5.53;3.55;;;;;;;16.97;100.00;102084.03;5095190;28;20097;-69
2022/06/04 08:06:21;;;;;;;11.70;4.28;;;;;;;16.80;100.00;102090.91;5095376;28;20514;-69
2022/06/04 08:08:50;;;;;;;10.25;3.90;;;;;;;16.57;100.00;102094.19;5112787;28;20498;-69
2022/06/04 08:11:36;;;;;;;8.15;3.72;;;;;;;16.51;100.00;102088.81;5101504;28;20490;-70
2022/06/04 08:14:23;;;;;;;11.00;4.22;;;;;;;16.18;100.00;102099.03;5090130;28;20028;-69
2022/06/04 08:16:58;;;;;;;10.82;4.32;;;;;;;16.22;100.00;102102.59;5097333;28;20438;-69
2022/06/04 08:19:27;;;;;;;9.95;4.32;;;;;;;16.01;100.00;102105.88;5091391;28;20478;-70
2022/06/04 08:21:53;;;;;;;10.95;4.13;;;;;;;15.93;100.00;102120.78;5096675;28;20111;-70
2022/06/04 08:24:20;;;;;;;7.20;3.90;;;;;;;15.79;100.00;102110.81;5108564;28;20063;-70
2022/06/04 08:26:48;;;;;;;9.25;4.30;;;;;;;15.82;100.00;102110.03;5095978;28;20506;-69
2022/06/04 08:29:15;;;;;;;9.80;3.97;;;;;;;15.75;100.00;102114.31;5110642;28;20467;-69
2022/06/04 08:31:41;;;;;;;8.70;4.43;;;;;;;15.64;100.00;102119.44;5111694;28;20046;-70
2022/06/04 08:34:07;;;;;;;10.55;4.65;;;;;;;15.48;100.00;102122.72;5098845;28;20097;-70
2022/06/04 08:36:32;;;;;;;6.72;4.30;;;;;;;15.45;100.00;102123.56;5086431;28;20393;-68
2022/06/04 08:38:58;;;;;;;6.60;4.20;;;;;;;15.50;100.00;102129.84;5095639;28;20028;-68
2022/06/04 08:42:11;;;;;;;7.10;4.18;;;;;;;15.58;100.00;102126.41;5095325;28;20028;-70
2022/06/04 08:44:46;;;;;;;7.25;4.20;;;;;;;15.65;100.00;102123.88;5074007;28;20028;-69
2022/06/04 08:47:15;;;;;;;7.78;4.35;;;;;;;15.61;100.00;102129.09;5075038;28;20100;-71
2022/06/04 08:49:51;;;;;;;8.40;4.30;;;;;;;15.57;100.00;102128.19;5078693;28;20055;-69
2022/06/04 08:52:31;;;;;;;10.52;4.13;;;;;;;15.64;100.00;102123.84;5096772;28;20024;-70
2022/06/04 08:57:50;;;;;;;7.80;4.43;;;;;;;15.57;100.00;102137.88;5107997;28;20038;-70
2022/06/04 09:00:24;;;;;;;7.82;4.57;;;;;;;15.65;100.00;102137.16;5094644;28;20154;-69
2022/06/04 09:03:04;;;;;;;7.80;4.85;;;;;;;15.59;100.00;102136.16;5103838;28;20024;-70
2022/06/04 09:05:51;;;;;;;9.38;4.10;;;;;;;15.63;100.00;102143.31;5092395;28;20073;-70
2022/06/04 09:08:46;;;;;;;6.95;4.35;;;;;;;15.64;100.00;102140.66;5093519;28;20027;-69
2022/06/04 09:11:23;;;;;;;8.82;4.55;;;;;;;15.68;100.00;102139.84;5094150;28;20035;-69
2022/06/04 09:14:06;;;;;;;10.40;4.72;;;;;;;15.80;100.00;102138.28;5108672;28;20024;-68
2022/06/04 09:16:38;;;;;;;12.50;4.47;;;;;;;15.77;100.00;102135.56;5091783;28;20031;-69
2022/06/04 09:19:14;;;;;;;8.20;4.47;;;;;;;15.82;100.00;102137.44;5086210;28;20031;-69
2022/06/04 09:21:39;;;;;;;11.23;4.90;;;;;;;15.90;100.00;102137.56;5092287;28;20032;-70
2022/06/04 09:24:05;;;;;;;9.40;4.78;;;;;;;15.93;100.00;102126.09;5094571;28;20028;-69
2022/06/04 09:26:41;;;;;;;9.07;5.07;;;;;;;16.09;100.00;102127.19;5095878;28;20031;-70
2022/06/04 09:29:39;;;;;;;7.65;4.82;;;;;;;16.09;100.00;102127.19;5093902;28;20364;-70
2022/06/04 09:32:14;;;;;;;11.18;4.35;;;;;;;16.21;100.00;102137.13;5093196;28;20430;-69
2022/06/04 09:34:45;;;;;;;8.77;4.75;;;;;;;16.32;100.00;102136.41;5100906;27;20062;-69
2022/06/04 09:37:11;;;;;;;10.88;4.82;;;;;;;16.49;100.00;102133.97;5109423;28;20040;-70
2022/06/04 09:39:40;;;;;;;8.18;4.43;;;;;;;16.69;100.00;102133.31;5092918;28;20423;-70
2022/06/04 09:42:22;;;;;;;13.93;4.47;;;;;;;16.86;100.00;102138.81;5093861;28;20035;-70
2022/06/04 09:44:57;;;;;;;11.75;4.32;;;;;;;17.01;100.00;102132.81;5083861;28;20023;-69
2022/06/04 09:47:34;;;;;;;8.77;4.57;;;;;;;17.25;100.00;102139.25;5092586;28;20051;-69
2022/06/04 09:50:05;;;;;;;8.45;4.00;;;;;;;17.53;100.00;102143.06;5093792;28;20493;-68
2022/06/04 09:52:35;;;;;;;8.60;4.53;;;;;;;17.88;100.00;102137.13;5094942;28;20380;-69
2022/06/04 09:55:20;;;;;;;8.35;3.58;;;;;;;18.30;98.71;102129.41;5099216;28;20028;-69
2022/06/04 09:58:17;;;;;;;10.32;4.28;;;;;;;18.46;97.08;102127.72;5093743;28;20027;-69
2022/06/04 10:01:00;;;;;;;9.73;4.05;;;;;;;18.53;94.31;102133.06;5076239;28;20044;-69
2022/06/04 10:03:28;;;;;;;7.70;4.32;;;;;;;18.52;96.30;102136.63;5093934;28;20115;-68
2022/06/04 10:06:01;;;;;;;5.97;3.67;;;;;;;18.51;97.81;102137.50;5088090;28;20024;-70
2022/06/04 10:08:29;;;;;;;10.23;4.32;;;;;;;18.41;95.49;102130.38;5094992;28;20399;-70
2022/06/04 10:11:04;;;;;;;9.18;4.15;;;;;;;18.50;94.50;102130.41;5093331;28;20429;-70
2022/06/04 10:13:48;;;;;;;6.28;3.83;;;;;;;18.51;94.81;102129.50;5098098;28;20069;-70
2022/06/04 10:16:23;;;;;;;6.18;4.15;;;;;;;18.48;95.09;102126.84;5097461;28;20476;-69
2022/06/04 10:19:14;;;;;;;5.72;3.42;;;;;;;18.42;94.79;102129.50;5090561;28;20447;-70
2022/06/04 10:21:42;;;;;;;7.38;4.15;;;;;;;18.22;96.18;102131.13;5084270;28;20036;-68
2022/06/04 10:24:24;;;;;;;5.93;4.03;;;;;;;18.26;94.81;102132.94;5093652;28;20028;-70
2022/06/04 10:27:16;;;;;;;8.32;4.30;;;;;;;18.09;97.37;102132.84;5092989;28;20174;-69
2022/06/04 10:29:59;;;;;;;10.55;4.57;;;;;;;18.03;95.94;102139.03;5081904;28;20495;-68
2022/06/04 10:32:57;;;;;;;;;;;;;;;17.76;99.38;102135.25;5092967;28;20054;-68
2022/06/04 10:35:41;;;;;;;10.57;4.72;;;;;;;17.72;97.75;102137.91;5077321;28;19912;-67
2022/06/04 10:38:22;;;;;;;5.63;4.30;;;;;;;17.66;98.85;102139.63;5085745;28;20031;-70
2022/06/04 10:40:53;;;;;;;6.50;4.47;;;;;;;17.52;100.00;102128.84;5087491;28;20371;-69
2022/06/04 10:43:31;;;;;;;11.57;5.18;;;;;;;17.46;98.34;102119.94;5083009;28;20023;-69
2022/06/04 10:46:21;;;;;;;10.82;5.18;;;;;;;17.34;99.13;102126.06;5088141;28;20468;-69
2022/06/04 10:49:06;;;;;;;6.60;4.85;;;;;;;17.26;99.39;102125.09;5082444;28;20041;-69
2022/06/04 10:51:49;;;;;;;7.28;4.45;;;;;;;17.16;100.00;102122.34;5084900;28;20048;-69
2022/06/04 10:54:41;;;;;;;4.75;4.00;;;;;;;17.14;100.00;102128.50;5087868;28;20020;-69
2022/06/04 10:57:40;;;;;;;10.32;4.47;;;;;;;17.20;100.00;102123.28;5081372;28;20537;-69
2022/06/04 11:00:18;;;;;;;9.05;5.18;;;;;;;17.19;100.00;102124.13;5087221;28;20039;-68
2022/06/04 11:03:14;;;;;;;8.30;4.47;;;;;;;17.15;100.00;102120.53;5104695;28;20038;-68
2022/06/04 11:05:47;;;;;;;6.43;4.82;;;;;;;17.17;100.00;102118.81;5096651;28;20031;-69
2022/06/04 11:08:22;;;;;;;8.97;5.27;;;;;;;17.18;100.00;102125.88;5092273;28;20123;-69
2022/06/04 11:10:53;;;;;;;6.78;5.10;;;;;;;17.19;100.00;102127.69;5092446;28;20028;-69
2022/06/04 11:13:24;;;;;;;6.88;5.10;;;;;;;17.22;100.00;102123.28;5101395;28;20142;-70
2022/06/04 11:15:57;;;;;;;9.25;5.97;;;;;;;17.26;100.00;102127.75;5092820;28;20451;-69
2022/06/04 11:18:26;;;;;;;7.18;5.10;;;;;;;17.06;100.00;102125.78;5102399;28;20031;-69
2022/06/04 11:20:58;;;;;;;7.32;4.97;;;;;;;17.11;100.00;102123.19;5092303;28;20122;-69
2022/06/04 11:23:26;;;;;;;8.68;5.55;;;;;;;17.10;100.00;102127.59;5089177;28;20031;-69
2022/06/04 11:26:00;;;;;;;10.60;5.15;;;;;;;17.15;100.00;102131.19;5093680;28;20027;-69
2022/06/04 11:28:27;;;;;;;9.00;4.95;;;;;;;17.17;100.00;102136.50;5097431;28;20494;-68
2022/06/04 11:31:23;;;;;;;10.07;5.70;;;;;;;17.16;100.00;102140.97;5093928;28;20112;-68
2022/06/04 11:34:06;;;;;;;10.88;5.80;;;;;;;17.00;100.00;102147.00;5092164;28;20087;-69
2022/06/04 11:36:40;;;;;;;7.68;5.45;;;;;;;17.11;100.00;102148.00;5087738;28;20500;-70
2022/06/04 11:39:16;;;;;;;7.03;5.60;;;;;;;17.17;100.00;102140.09;5095330;28;20877;-71
2022/06/04 11:41:59;;;;;;;9.40;5.70;;;;;;;17.18;100.00;102139.19;5088342;28;20115;-69
2022/06/04 11:44:30;;;;;;;7.97;5.90;;;;;;;17.19;100.00;102140.09;5097862;28;20036;-68
2022/06/04 11:47:05;;;;;;;9.40;5.82;;;;;;;17.03;100.00;102142.59;5104158;28;20056;-68